Terminal Aerodrome Forecast
Issued by NWS Tampa Bay Area, FL

Home | Current Version | Previous Version | Text Only | Print | Product List | Glossary On
Versions: 1 2 3 4 5 6 7 8 9 10 11 12 13 14 15 16 17 18 19 20 21 22 23 24 25 26 27 28
000
FTUS42 KTBW 020500
TAFTPA
TAF
KTPA 020535Z 0206/0306 VRB04KT P6SM FEW050 SCT250
     FM021600 14004KT P6SM SCT035 BKN250
     FM021800 24007KT P6SM VCTS SCT050CB BKN250
     FM022100 30008KT P6SM VCTS SCT035CB BKN050
     FM030200 VRB04KT P6SM FEW050 SCT250=

USA.gov is the U.S. government's official web portal to all federal, state and local government web resources and services.